Gao Qiang — VRVQ8 — position and weather

sailwx.info

Track history (hours):
 
Tides and Currents Weather Stations Pressure Air Temp Water Temp Dewpoint Dewpoint Depression Visibility Wind Speed Wind Dir Waves Ship Positions

Gao Qiang

Last reported at 2016-May-27 05:28 UTC. Time now 2016-May-27 16:14 UTC.
Position N 16°12' E 108°14'.

Length 186 m; draft 6.4 m.

Type: Cargo ship. MMSI: 477611000.

Date/timePositionNaut miles runAvg speedWind from/ knotsBaromVisibWave heightAir tempDewpointWater temp
2016-May-27 05:28N 16°12' E 108°14'5 4.7
2016-May-27 04:29N 16°07' E 108°13'0 0.0
2016-May-27 03:29N 16°07' E 108°13'0 0.0
2016-May-27 02:29N 16°07' E 108°13'0 0.0
2016-May-27 01:29N 16°07' E 108°13'0 0.0
2016-May-27 00:29N 16°07' E 108°13'0 0.0
2016-May-26 23:29N 16°07' E 108°13'0 0.0
2016-May-26 22:29N 16°07' E 108°13'0 0.0
2016-May-26 21:29N 16°07' E 108°13'0 0.0
2016-May-26 20:29N 16°07' E 108°13'0 0.0
2016-May-26 19:29N 16°07' E 108°13'0 0.0
2016-May-26 18:29N 16°07' E 108°13'0 0.0
2016-May-26 17:29N 16°07' E 108°13'0 0.0
2016-May-26 16:29N 16°07' E 108°13'0 0.0
2016-May-26 15:29N 16°07' E 108°13'0 0.0
2016-May-26 14:29N 16°07' E 108°13'0 0.0
2016-May-26 13:29N 16°07' E 108°13'0 0.0
2016-May-26 12:29N 16°07' E 108°13'0 0.0
2016-May-26 11:29N 16°07' E 108°13'0 0.0
2016-May-26 10:29N 16°07' E 108°13'0 0.0
2016-May-26 09:29N 16°07' E 108°13'0 0.0
2016-May-26 08:29N 16°07' E 108°13'0 0.0
2016-May-26 07:29N 16°07' E 108°13'0 0.0
2016-May-26 06:29N 16°07' E 108°13'0 0.0
2016-May-26 05:29N 16°07' E 108°13'0 0.0
2016-May-26 04:29N 16°07' E 108°13'0 0.0
2016-May-26 03:29N 16°07' E 108°13'0 0.0
2016-May-26 02:29N 16°07' E 108°13'0 0.0
2016-May-26 01:29N 16°07' E 108°13'0 0.0
2016-May-26 00:29N 16°07' E 108°13'0 0.0
2016-May-25 23:29N 16°07' E 108°13'0 0.0
2016-May-25 22:29N 16°07' E 108°13'0 0.0
2016-May-25 21:29N 16°07' E 108°13'0 0.0
2016-May-25 20:29N 16°07' E 108°13'0 0.0
2016-May-25 19:29N 16°07' E 108°13'0 0.0
2016-May-25 18:29N 16°07' E 108°13'0 0.0
2016-May-25 17:29N 16°07' E 108°13'0 0.0
2016-May-25 16:29N 16°07' E 108°13'0 0.0
2016-May-25 15:29N 16°07' E 108°13'0 0.0
2016-May-25 14:29N 16°07' E 108°13'0 0.0
2016-May-25 13:29N 16°07' E 108°13'0 0.0
2016-May-25 12:29N 16°07' E 108°13'0 0.0
2016-May-25 11:29N 16°07' E 108°13'1 0.6
2016-May-25 10:33N 16°08' E 108°12'3 3.1
2016-May-25 09:33N 16°11' E 108°12'8 5.7
2016-May-25 08:11N 16°17' E 108°16'  
2016-May-18 06:06N 20°10' E 110°07'814.0
2016-May-18 05:32N 20°11' E 110°15'  
Track history (hours):
 
Tides and Currents Weather Stations Pressure Air Temp Water Temp Dewpoint Dewpoint Depression Visibility Wind Speed Wind Dir Waves Ship Positions

Gao Qiang

Last reported at 2016-May-27 05:28 UTC. Time now 2016-May-27 16:14 UTC.
Position N 16°12' E 108°14'.

Length 186 m; draft 6.4 m.

Type: Cargo ship. MMSI: 477611000.

Date/timePositionNaut miles runAvg speedWind from/ knotsBaromVisibWave heightAir tempDewpointWater temp
2016-May-27 05:28N 16°12' E 108°14'5 4.7
2016-May-27 04:29N 16°07' E 108°13'0 0.0
2016-May-27 03:29N 16°07' E 108°13'0 0.0
2016-May-27 02:29N 16°07' E 108°13'0 0.0
2016-May-27 01:29N 16°07' E 108°13'0 0.0
2016-May-27 00:29N 16°07' E 108°13'0 0.0
2016-May-26 23:29N 16°07' E 108°13'0 0.0
2016-May-26 22:29N 16°07' E 108°13'0 0.0
2016-May-26 21:29N 16°07' E 108°13'0 0.0
2016-May-26 20:29N 16°07' E 108°13'0 0.0
2016-May-26 19:29N 16°07' E 108°13'0 0.0
2016-May-26 18:29N 16°07' E 108°13'0 0.0
2016-May-26 17:29N 16°07' E 108°13'0 0.0
2016-May-26 16:29N 16°07' E 108°13'0 0.0
2016-May-26 15:29N 16°07' E 108°13'0 0.0
2016-May-26 14:29N 16°07' E 108°13'0 0.0
2016-May-26 13:29N 16°07' E 108°13'0 0.0
2016-May-26 12:29N 16°07' E 108°13'0 0.0
2016-May-26 11:29N 16°07' E 108°13'0 0.0
2016-May-26 10:29N 16°07' E 108°13'0 0.0
2016-May-26 09:29N 16°07' E 108°13'0 0.0
2016-May-26 08:29N 16°07' E 108°13'0 0.0
2016-May-26 07:29N 16°07' E 108°13'0 0.0
2016-May-26 06:29N 16°07' E 108°13'0 0.0
2016-May-26 05:29N 16°07' E 108°13'0 0.0
2016-May-26 04:29N 16°07' E 108°13'0 0.0
2016-May-26 03:29N 16°07' E 108°13'0 0.0
2016-May-26 02:29N 16°07' E 108°13'0 0.0
2016-May-26 01:29N 16°07' E 108°13'0 0.0
2016-May-26 00:29N 16°07' E 108°13'0 0.0
2016-May-25 23:29N 16°07' E 108°13'0 0.0
2016-May-25 22:29N 16°07' E 108°13'0 0.0
2016-May-25 21:29N 16°07' E 108°13'0 0.0
2016-May-25 20:29N 16°07' E 108°13'0 0.0
2016-May-25 19:29N 16°07' E 108°13'0 0.0
2016-May-25 18:29N 16°07' E 108°13'0 0.0
2016-May-25 17:29N 16°07' E 108°13'0 0.0
2016-May-25 16:29N 16°07' E 108°13'0 0.0
2016-May-25 15:29N 16°07' E 108°13'0 0.0
2016-May-25 14:29N 16°07' E 108°13'0 0.0
2016-May-25 13:29N 16°07' E 108°13'0 0.0
2016-May-25 12:29N 16°07' E 108°13'0 0.0
2016-May-25 11:29N 16°07' E 108°13'1 0.6
2016-May-25 10:33N 16°08' E 108°12'3 3.1
2016-May-25 09:33N 16°11' E 108°12'8 5.7
2016-May-25 08:11N 16°17' E 108°16'  
2016-May-18 06:06N 20°10' E 110°07'814.0
2016-May-18 05:32N 20°11' E 110°15'  

Dump ship's entire track history